LFSB 241300Z VRB04KT 9999 FEW050 SCT180 BKN250 23/11 Q1014 NOSIG

ElémentsDécodage
LFSB Station météo située sur l'aérodrome de BALE Mulhouse
241300Z émis le 24 du mois à 13h00 UTC
VRB04KT vent de direction variable, 04 noeuds
9999 visibilité horizontale supérieure à 10 Km
FEW050 nuages rares (1/8 à 2/8) à 5000 pieds
SCT180 nuages épars (3/8 à 4/8) à 18000 pieds
BKN250 nuages morcelés (5/8 à 7/8) à 25000 pieds
23/11 température 23°C, point de rosée 11°C
 soit une humidité relative de 47%
Q1014 la pression au niveau de la mer (QNH) est de 1014 hPa
NOSIG Pas de changement significatif prévu au cours des deux heures suivant l'heure de l'observation